Wetterdaten: Mittwoch, 28.03.2007
Datum Zeit Temp. A. Feuchte A. Luftdruck Regen Wind Richtung Richtung Sonnenschein UV Solar Windben
28.03.2007 00:00 10,4 C 50 % 1018,7 hPa 0,0 mm 3,2 km/h (1 Bft) O 90 0 min 0 UV-I 0 W/m 8,0 km/h (2 Bft)
28.03.2007 00:10 10,4 C 50 % 1018,8 hPa 0,0 mm 3,2 km/h (1 Bft) O-SO 112 0 min 0 UV-I 0 W/m 11,3 km/h (2 Bft)
28.03.2007 00:20 10,4 C 50 % 1018,8 hPa 0,0 mm 3,2 km/h (1 Bft) O 90 0 min 0 UV-I 0 W/m 8,0 km/h (2 Bft)
28.03.2007 00:30 10,2 C 51 % 1018,8 hPa 0,0 mm 1,6 km/h (1 Bft) O-SO 112 0 min 0 UV-I 0 W/m 6,4 km/h (2 Bft)
28.03.2007 00:40 10,1 C 52 % 1018,8 hPa 0,0 mm 1,6 km/h (1 Bft) O 90 0 min 0 UV-I 0 W/m 4,8 km/h (1 Bft)
28.03.2007 00:50 9,8 C 53 % 1018,7 hPa 0,0 mm 1,6 km/h (1 Bft) O 90 0 min 0 UV-I 0 W/m 4,8 km/h (1 Bft)
28.03.2007 01:00 9,6 C 53 % 1018,8 hPa 0,0 mm 1,6 km/h (1 Bft) O 90 0 min 0 UV-I 0 W/m 6,4 km/h (2 Bft)
28.03.2007 01:10 9,6 C 53 % 1018,8 hPa 0,0 mm 1,6 km/h (1 Bft) O 90 0 min 0 UV-I 0 W/m 9,7 km/h (2 Bft)
28.03.2007 01:20 9,6 C 53 % 1018,8 hPa 0,0 mm 1,6 km/h (1 Bft) O-SO 112 0 min 0 UV-I 0 W/m 9,7 km/h (2 Bft)
28.03.2007 01:30 9,6 C 53 % 1018,6 hPa 0,0 mm 1,6 km/h (1 Bft) O 90 0 min 0 UV-I 0 W/m 6,4 km/h (2 Bft)
28.03.2007 01:40 9,4 C 54 % 1018,6 hPa 0,0 mm 1,6 km/h (1 Bft) O-SO 112 0 min 0 UV-I 0 W/m 6,4 km/h (2 Bft)
28.03.2007 01:50 9,2 C 54 % 1018,7 hPa 0,0 mm 1,6 km/h (1 Bft) O 90 0 min 0 UV-I 0 W/m 6,4 km/h (2 Bft)
28.03.2007 02:00 9,1 C 55 % 1018,8 hPa 0,0 mm 1,6 km/h (1 Bft) O 90 0 min 0 UV-I 0 W/m 6,4 km/h (2 Bft)
28.03.2007 02:10 8,9 C 56 % 1018,7 hPa 0,0 mm 1,6 km/h (1 Bft) O 90 0 min 0 UV-I 0 W/m 4,8 km/h (1 Bft)
28.03.2007 02:20 8,6 C 57 % 1018,7 hPa 0,0 mm 1,6 km/h (1 Bft) O-SO 112 0 min 0 UV-I 0 W/m 4,8 km/h (1 Bft)
28.03.2007 02:30 8,5 C 57 % 1018,7 hPa 0,0 mm 1,6 km/h (1 Bft) O-SO 112 0 min 0 UV-I 0 W/m 8,0 km/h (2 Bft)
28.03.2007 02:40 8,3 C 58 % 1018,7 hPa 0,0 mm 1,6 km/h (1 Bft) O 90 0 min 0 UV-I 0 W/m 6,4 km/h (2 Bft)
28.03.2007 02:50 8,1 C 58 % 1018,7 hPa 0,0 mm 1,6 km/h (1 Bft) O-SO 112 0 min 0 UV-I 0 W/m 4,8 km/h (1 Bft)
28.03.2007 03:00 8,1 C 58 % 1018,7 hPa 0,0 mm 1,6 km/h (1 Bft) O 90 0 min 0 UV-I 0 W/m 6,4 km/h (2 Bft)
28.03.2007 03:10 8,1 C 58 % 1018,8 hPa 0,0 mm 1,6 km/h (1 Bft) O-SO 112 0 min 0 UV-I 0 W/m 4,8 km/h (1 Bft)
28.03.2007 03:20 7,9 C 59 % 1018,8 hPa 0,0 mm 1,6 km/h (1 Bft) O 90 0 min 0 UV-I 0 W/m 4,8 km/h (1 Bft)
28.03.2007 03:30 7,8 C 58 % 1018,7 hPa 0,0 mm 1,6 km/h (1 Bft) O 90 0 min 0 UV-I 0 W/m 4,8 km/h (1 Bft)
28.03.2007 03:40 7,8 C 59 % 1018,6 hPa 0,0 mm 1,6 km/h (1 Bft) O 90 0 min 0 UV-I 0 W/m 6,4 km/h (2 Bft)
28.03.2007 03:50 7,8 C 58 % 1018,6 hPa 0,0 mm 1,6 km/h (1 Bft) O 90 0 min 0 UV-I 0 W/m 6,4 km/h (2 Bft)
28.03.2007 04:00 7,8 C 58 % 1018,5 hPa 0,0 mm 1,6 km/h (1 Bft) O-SO 112 0 min 0 UV-I 0 W/m 6,4 km/h (2 Bft)
28.03.2007 04:10 7,7 C 59 % 1018,4 hPa 0,0 mm 1,6 km/h (1 Bft) O 90 0 min 0 UV-I 0 W/m 4,8 km/h (1 Bft)
28.03.2007 04:20 7,5 C 60 % 1018,4 hPa 0,0 mm 1,6 km/h (1 Bft) O-SO 112 0 min 0 UV-I 0 W/m 4,8 km/h (1 Bft)
28.03.2007 04:30 7,3 C 60 % 1018,3 hPa 0,0 mm 1,6 km/h (1 Bft) O-SO 112 0 min 0 UV-I 0 W/m 6,4 km/h (2 Bft)
28.03.2007 04:40 7,2 C 61 % 1018,4 hPa 0,0 mm 1,6 km/h (1 Bft) O 90 0 min 0 UV-I 0 W/m 4,8 km/h (1 Bft)
28.03.2007 04:50 7,2 C 61 % 1018,3 hPa 0,0 mm 1,6 km/h (1 Bft) O 90 0 min 0 UV-I 0 W/m 4,8 km/h (1 Bft)
28.03.2007 05:00 7,1 C 61 % 1018,2 hPa 0,0 mm 1,6 km/h (1 Bft) O-SO 112 0 min 0 UV-I 0 W/m 4,8 km/h (1 Bft)
28.03.2007 05:10 6,9 C 62 % 1018,2 hPa 0,0 mm 1,6 km/h (1 Bft) O-SO 112 0 min 0 UV-I 0 W/m 4,8 km/h (1 Bft)
28.03.2007 05:20 6,8 C 62 % 1018,3 hPa 0,0 mm 0,0 km/h (0 Bft) O 90 0 min 0 UV-I 0 W/m 3,2 km/h (1 Bft)
28.03.2007 05:30 6,6 C 63 % 1018,3 hPa 0,0 mm 0,0 km/h (0 Bft) O-SO 112 0 min 0 UV-I 0 W/m 3,2 km/h (1 Bft)
28.03.2007 05:40 6,4 C 63 % 1018,2 hPa 0,0 mm 1,6 km/h (1 Bft) O-SO 112 0 min 0 UV-I 0 W/m 3,2 km/h (1 Bft)
28.03.2007 05:50 6,3 C 64 % 1018,2 hPa 0,0 mm 0,0 km/h (0 Bft) O-SO 112 0 min 0 UV-I 0 W/m 3,2 km/h (1 Bft)
28.03.2007 06:00 6,2 C 64 % 1018,2 hPa 0,0 mm 1,6 km/h (1 Bft) O 90 0 min 0 UV-I 0 W/m 3,2 km/h (1 Bft)
28.03.2007 06:10 6,1 C 64 % 1018,3 hPa 0,0 mm 0,0 km/h (0 Bft) O 90 0 min 0 UV-I 0 W/m 3,2 km/h (1 Bft)
28.03.2007 06:20 6,0 C 65 % 1018,3 hPa 0,0 mm 0,0 km/h (0 Bft) O 90 0 min 0 UV-I 0 W/m 3,2 km/h (1 Bft)
28.03.2007 06:30 5,9 C 64 % 1018,2 hPa 0,0 mm 1,6 km/h (1 Bft) O-SO 112 0 min 0 UV-I 0 W/m 4,8 km/h (1 Bft)
28.03.2007 06:40 6,0 C 64 % 1018,2 hPa 0,0 mm 1,6 km/h (1 Bft) O 90 0 min 0 UV-I 0 W/m 4,8 km/h (1 Bft)
28.03.2007 06:50 6,2 C 63 % 1018,2 hPa 0,0 mm 1,6 km/h (1 Bft) O 90 0 min 0 UV-I 0 W/m 4,8 km/h (1 Bft)
28.03.2007 07:00 6,1 C 64 % 1018,2 hPa 0,0 mm 0,0 km/h (0 Bft) O 90 0 min 0 UV-I 0 W/m 3,2 km/h (1 Bft)
28.03.2007 07:10 5,9 C 64 % 1018,2 hPa 0,0 mm 1,6 km/h (1 Bft) O-SO 112 0 min 0 UV-I 0 W/m 4,8 km/h (1 Bft)
28.03.2007 07:20 5,9 C 64 % 1018,2 hPa 0,0 mm 0,0 km/h (0 Bft) O-SO 112 0 min 0 UV-I 9 W/m 3,2 km/h (1 Bft)
28.03.2007 07:30 5,8 C 66 % 1018,2 hPa 0,0 mm 0,0 km/h (0 Bft) O-SO 112 0 min 0 UV-I 18 W/m 1,6 km/h (1 Bft)
28.03.2007 07:40 5,2 C 68 % 1018,2 hPa 0,0 mm 0,0 km/h (0 Bft) N 0 0 min 0 UV-I 26 W/m 0,0 km/h (0 Bft)
28.03.2007 07:50 5,1 C 68 % 1018,2 hPa 0,0 mm 0,0 km/h (0 Bft) N 0 0 min 0 UV-I 42 W/m 0,0 km/h (0 Bft)
28.03.2007 08:00 5,2 C 68 % 1018,4 hPa 0,0 mm 0,0 km/h (0 Bft) N 0 0 min 0 UV-I 63 W/m 0,0 km/h (0 Bft)
28.03.2007 08:10 5,3 C 68 % 1018,3 hPa 0,0 mm 0,0 km/h (0 Bft) N 0 10 min 0 UV-I 88 W/m 0,0 km/h (0 Bft)
28.03.2007 08:20 5,9 C 65 % 1018,3 hPa 0,0 mm 0,0 km/h (0 Bft) N 0 10 min 0 UV-I 111 W/m 0,0 km/h (0 Bft)
28.03.2007 08:30 6,6 C 62 % 1018,3 hPa 0,0 mm 0,0 km/h (0 Bft) O-SO 112 10 min 0 UV-I 134 W/m 1,6 km/h (1 Bft)
28.03.2007 08:40 7,3 C 60 % 1018,3 hPa 0,0 mm 0,0 km/h (0 Bft) O-SO 112 10 min 0 UV-I 156 W/m 1,6 km/h (1 Bft)
28.03.2007 08:50 7,9 C 57 % 1018,4 hPa 0,0 mm 0,0 km/h (0 Bft) O 90 10 min 0 UV-I 181 W/m 3,2 km/h (1 Bft)
28.03.2007 09:00 8,6 C 55 % 1018,4 hPa 0,0 mm 1,6 km/h (1 Bft) O-SO 112 10 min 0 UV-I 207 W/m 6,4 km/h (2 Bft)
28.03.2007 09:10 8,9 C 54 % 1018,4 hPa 0,0 mm 1,6 km/h (1 Bft) O-SO 112 10 min 1 UV-I 232 W/m 6,4 km/h (2 Bft)
28.03.2007 09:20 9,4 C 53 % 1018,2 hPa 0,0 mm 1,6 km/h (1 Bft) O 90 10 min 1 UV-I 258 W/m 8,0 km/h (2 Bft)
28.03.2007 09:30 9,8 C 51 % 1018,2 hPa 0,0 mm 3,2 km/h (1 Bft) O 90 10 min 1 UV-I 290 W/m 9,7 km/h (2 Bft)
28.03.2007 09:40 10,2 C 51 % 1018,1 hPa 0,0 mm 3,2 km/h (1 Bft) O 90 10 min 1 UV-I 311 W/m 9,7 km/h (2 Bft)
28.03.2007 09:50 10,7 C 49 % 1018,1 hPa 0,0 mm 3,2 km/h (1 Bft) O-SO 112 10 min 1 UV-I 339 W/m 9,7 km/h (2 Bft)
28.03.2007 10:00 11,2 C 47 % 1018,2 hPa 0,0 mm 3,2 km/h (1 Bft) O-SO 112 10 min 1 UV-I 359 W/m 8,0 km/h (2 Bft)
28.03.2007 10:10 11,6 C 47 % 1018,2 hPa 0,0 mm 3,2 km/h (1 Bft) O 90 10 min 1 UV-I 392 W/m 9,7 km/h (2 Bft)
28.03.2007 10:20 11,9 C 46 % 1018,2 hPa 0,0 mm 3,2 km/h (1 Bft) O 90 10 min 1 UV-I 410 W/m 8,0 km/h (2 Bft)
28.03.2007 10:30 12,3 C 44 % 1018,1 hPa 0,0 mm 3,2 km/h (1 Bft) O 90 10 min 1 UV-I 434 W/m 8,0 km/h (2 Bft)
28.03.2007 10:40 12,7 C 42 % 1018,0 hPa 0,0 mm 3,2 km/h (1 Bft) O-SO 112 10 min 1 UV-I 452 W/m 8,0 km/h (2 Bft)
28.03.2007 10:50 13,0 C 42 % 1018,0 hPa 0,0 mm 3,2 km/h (1 Bft) O-SO 112 10 min 2 UV-I 471 W/m 11,3 km/h (2 Bft)
28.03.2007 11:00 13,2 C 41 % 1017,9 hPa 0,0 mm 3,2 km/h (1 Bft) SO 135 10 min 2 UV-I 492 W/m 11,3 km/h (2 Bft)
28.03.2007 11:10 13,6 C 41 % 1017,8 hPa 0,0 mm 3,2 km/h (1 Bft) O 90 10 min 2 UV-I 513 W/m 8,0 km/h (2 Bft)
28.03.2007 11:20 13,8 C 40 % 1017,8 hPa 0,0 mm 3,2 km/h (1 Bft) O 90 10 min 2 UV-I 529 W/m 8,0 km/h (2 Bft)
28.03.2007 11:30 14,2 C 39 % 1017,7 hPa 0,0 mm 1,6 km/h (1 Bft) S-SO 157 10 min 2 UV-I 548 W/m 9,7 km/h (2 Bft)
28.03.2007 11:40 14,7 C 39 % 1017,6 hPa 0,0 mm 3,2 km/h (1 Bft) O-SO 112 10 min 2 UV-I 573 W/m 9,7 km/h (2 Bft)
28.03.2007 11:50 14,9 C 37 % 1017,5 hPa 0,0 mm 4,8 km/h (1 Bft) O 90 10 min 2 UV-I 585 W/m 11,3 km/h (2 Bft)
28.03.2007 12:00 15,0 C 38 % 1017,4 hPa 0,0 mm 3,2 km/h (1 Bft) O 90 10 min 2 UV-I 591 W/m 8,0 km/h (2 Bft)
28.03.2007 12:10 15,1 C 38 % 1017,2 hPa 0,0 mm 3,2 km/h (1 Bft) O 90 10 min 2 UV-I 601 W/m 8,0 km/h (2 Bft)
28.03.2007 12:20 15,4 C 36 % 1017,1 hPa 0,0 mm 3,2 km/h (1 Bft) O 90 10 min 2 UV-I 619 W/m 9,7 km/h (2 Bft)
28.03.2007 12:30 15,8 C 32 % 1016,9 hPa 0,0 mm 3,2 km/h (1 Bft) O-SO 112 10 min 2 UV-I 622 W/m 14,5 km/h (3 Bft)
28.03.2007 12:40 16,1 C 32 % 1016,8 hPa 0,0 mm 3,2 km/h (1 Bft) O-SO 112 10 min 3 UV-I 635 W/m 9,7 km/h (2 Bft)
28.03.2007 12:50 16,3 C 34 % 1016,7 hPa 0,0 mm 3,2 km/h (1 Bft) O 90 10 min 3 UV-I 636 W/m 9,7 km/h (2 Bft)
28.03.2007 13:00 16,5 C 33 % 1016,7 hPa 0,0 mm 3,2 km/h (1 Bft) O-SO 112 10 min 3 UV-I 645 W/m 11,3 km/h (2 Bft)
28.03.2007 13:10 16,6 C 34 % 1016,5 hPa 0,0 mm 3,2 km/h (1 Bft) O 90 10 min 3 UV-I 650 W/m 8,0 km/h (2 Bft)
28.03.2007 13:20 16,8 C 34 % 1016,5 hPa 0,0 mm 3,2 km/h (1 Bft) O-SO 112 10 min 3 UV-I 650 W/m 9,7 km/h (2 Bft)
28.03.2007 13:30 16,8 C 33 % 1016,3 hPa 0,0 mm 3,2 km/h (1 Bft) O 90 10 min 3 UV-I 654 W/m 9,7 km/h (2 Bft)
28.03.2007 13:40 17,0 C 34 % 1016,3 hPa 0,0 mm 3,2 km/h (1 Bft) O 90 10 min 3 UV-I 645 W/m 8,0 km/h (2 Bft)
28.03.2007 13:50 17,1 C 33 % 1016,2 hPa 0,0 mm 4,8 km/h (1 Bft) O-SO 112 10 min 3 UV-I 645 W/m 17,7 km/h (3 Bft)
28.03.2007 14:00 17,3 C 33 % 1016,1 hPa 0,0 mm 3,2 km/h (1 Bft) O-SO 112 10 min 3 UV-I 649 W/m 9,7 km/h (2 Bft)
28.03.2007 14:10 17,4 C 31 % 1016,1 hPa 0,0 mm 4,8 km/h (1 Bft) O 90 10 min 3 UV-I 649 W/m 14,5 km/h (3 Bft)
28.03.2007 14:20 17,3 C 32 % 1015,8 hPa 0,0 mm 3,2 km/h (1 Bft) S 180 10 min 3 UV-I 640 W/m 9,7 km/h (2 Bft)
28.03.2007 14:30 17,5 C 31 % 1015,7 hPa 0,0 mm 4,8 km/h (1 Bft) O 90 10 min 2 UV-I 633 W/m 14,5 km/h (3 Bft)
28.03.2007 14:40 17,5 C 32 % 1015,7 hPa 0,0 mm 3,2 km/h (1 Bft) O 90 10 min 2 UV-I 629 W/m 11,3 km/h (2 Bft)
28.03.2007 14:50 17,6 C 32 % 1015,6 hPa 0,0 mm 4,8 km/h (1 Bft) O 90 10 min 2 UV-I 617 W/m 9,7 km/h (2 Bft)
28.03.2007 15:00 17,5 C 31 % 1015,4 hPa 0,0 mm 3,2 km/h (1 Bft) O-NO 67 10 min 2 UV-I 591 W/m 9,7 km/h (2 Bft)
28.03.2007 15:10 17,6 C 31 % 1015,3 hPa 0,0 mm 3,2 km/h (1 Bft) O-NO 67 10 min 2 UV-I 592 W/m 8,0 km/h (2 Bft)
28.03.2007 15:20 17,7 C 33 % 1015,2 hPa 0,0 mm 3,2 km/h (1 Bft) O 90 10 min 2 UV-I 561 W/m 9,7 km/h (2 Bft)
28.03.2007 15:30 17,6 C 33 % 1015,0 hPa 0,0 mm 3,2 km/h (1 Bft) O-SO 112 10 min 2 UV-I 557 W/m 9,7 km/h (2 Bft)
28.03.2007 15:40 17,7 C 30 % 1014,9 hPa 0,0 mm 3,2 km/h (1 Bft) O 90 10 min 2 UV-I 555 W/m 8,0 km/h (2 Bft)
28.03.2007 15:50 17,8 C 31 % 1014,7 hPa 0,0 mm 3,2 km/h (1 Bft) O 90 10 min 2 UV-I 538 W/m 11,3 km/h (2 Bft)
28.03.2007 16:00 17,8 C 30 % 1014,7 hPa 0,0 mm 3,2 km/h (1 Bft) O 90 10 min 2 UV-I 504 W/m 8,0 km/h (2 Bft)
28.03.2007 16:10 17,9 C 31 % 1014,6 hPa 0,0 mm 3,2 km/h (1 Bft) O 90 10 min 1 UV-I 487 W/m 6,4 km/h (2 Bft)
28.03.2007 16:20 17,8 C 30 % 1014,6 hPa 0,0 mm 3,2 km/h (1 Bft) O 90 10 min 1 UV-I 464 W/m 9,7 km/h (2 Bft)
28.03.2007 16:30 17,5 C 29 % 1014,5 hPa 0,0 mm 3,2 km/h (1 Bft) SO 135 10 min 1 UV-I 452 W/m 14,5 km/h (3 Bft)
28.03.2007 16:40 17,6 C 30 % 1014,5 hPa 0,0 mm 3,2 km/h (1 Bft) O-NO 67 10 min 1 UV-I 450 W/m 9,7 km/h (2 Bft)
28.03.2007 16:50 17,7 C 30 % 1014,3 hPa 0,0 mm 3,2 km/h (1 Bft) O 90 10 min 1 UV-I 418 W/m 14,5 km/h (3 Bft)
28.03.2007 17:00 17,6 C 30 % 1014,3 hPa 0,0 mm 3,2 km/h (1 Bft) O-SO 112 10 min 1 UV-I 388 W/m 6,4 km/h (2 Bft)
28.03.2007 17:10 17,5 C 30 % 1014,2 hPa 0,0 mm 3,2 km/h (1 Bft) O 90 10 min 1 UV-I 350 W/m 9,7 km/h (2 Bft)
28.03.2007 17:20 17,4 C 31 % 1014,2 hPa 0,0 mm 3,2 km/h (1 Bft) O-SO 112 10 min 1 UV-I 325 W/m 9,7 km/h (2 Bft)
28.03.2007 17:30 17,4 C 31 % 1014,0 hPa 0,0 mm 3,2 km/h (1 Bft) O 90 10 min 1 UV-I 311 W/m 9,7 km/h (2 Bft)
28.03.2007 17:40 17,3 C 30 % 1013,9 hPa 0,0 mm 3,2 km/h (1 Bft) O-SO 112 10 min 1 UV-I 287 W/m 8,0 km/h (2 Bft)
28.03.2007 17:50 17,3 C 30 % 1013,9 hPa 0,0 mm 3,2 km/h (1 Bft) O-SO 112 10 min 1 UV-I 269 W/m 6,4 km/h (2 Bft)
28.03.2007 18:00 17,2 C 30 % 1013,8 hPa 0,0 mm 3,2 km/h (1 Bft) O-SO 112 10 min 0 UV-I 237 W/m 8,0 km/h (2 Bft)
28.03.2007 18:10 17,1 C 30 % 1013,7 hPa 0,0 mm 3,2 km/h (1 Bft) O-SO 112 10 min 0 UV-I 207 W/m 9,7 km/h (2 Bft)
28.03.2007 18:20 16,9 C 31 % 1013,7 hPa 0,0 mm 3,2 km/h (1 Bft) O-SO 112 10 min 0 UV-I 185 W/m 9,7 km/h (2 Bft)
28.03.2007 18:30 16,8 C 31 % 1013,6 hPa 0,0 mm 3,2 km/h (1 Bft) O 90 10 min 0 UV-I 146 W/m 9,7 km/h (2 Bft)
28.03.2007 18:40 16,7 C 32 % 1013,6 hPa 0,0 mm 1,6 km/h (1 Bft) O-SO 112 10 min 0 UV-I 125 W/m 9,7 km/h (2 Bft)
28.03.2007 18:50 16,5 C 34 % 1013,7 hPa 0,0 mm 1,6 km/h (1 Bft) O 90 10 min 0 UV-I 104 W/m 6,4 km/h (2 Bft)
28.03.2007 19:00 16,1 C 38 % 1013,6 hPa 0,0 mm 1,6 km/h (1 Bft) O 90 10 min 0 UV-I 72 W/m 4,8 km/h (1 Bft)
28.03.2007 19:10 15,6 C 39 % 1013,6 hPa 0,0 mm 1,6 km/h (1 Bft) O 90 0 min 0 UV-I 49 W/m 6,4 km/h (2 Bft)
28.03.2007 19:20 15,3 C 39 % 1013,7 hPa 0,0 mm 1,6 km/h (1 Bft) O 90 0 min 0 UV-I 26 W/m 4,8 km/h (1 Bft)
28.03.2007 19:30 15,1 C 40 % 1013,7 hPa 0,0 mm 1,6 km/h (1 Bft) O-NO 67 0 min 0 UV-I 23 W/m 6,4 km/h (2 Bft)
28.03.2007 19:40 14,9 C 41 % 1013,9 hPa 0,0 mm 1,6 km/h (1 Bft) O-NO 67 10 min 0 UV-I 18 W/m 4,8 km/h (1 Bft)
28.03.2007 19:50 14,7 C 43 % 1013,9 hPa 0,0 mm 1,6 km/h (1 Bft) O 90 0 min 0 UV-I 0 W/m 6,4 km/h (2 Bft)
28.03.2007 20:00 14,4 C 44 % 1013,9 hPa 0,0 mm 1,6 km/h (1 Bft) O 90 0 min 0 UV-I 0 W/m 4,8 km/h (1 Bft)
28.03.2007 20:10 14,1 C 45 % 1013,8 hPa 0,0 mm 1,6 km/h (1 Bft) O 90 0 min 0 UV-I 0 W/m 6,4 km/h (2 Bft)
28.03.2007 20:20 13,6 C 47 % 1013,7 hPa 0,0 mm 1,6 km/h (1 Bft) O 90 0 min 0 UV-I 0 W/m 4,8 km/h (1 Bft)
28.03.2007 20:30 13,1 C 49 % 1013,8 hPa 0,0 mm 0,0 km/h (0 Bft) O 90 0 min 0 UV-I 0 W/m 3,2 km/h (1 Bft)
28.03.2007 20:40 12,6 C 50 % 1013,7 hPa 0,0 mm 0,0 km/h (0 Bft) O 90 0 min 0 UV-I 0 W/m 3,2 km/h (1 Bft)
28.03.2007 20:50 12,4 C 50 % 1013,8 hPa 0,0 mm 0,0 km/h (0 Bft) O 90 0 min 0 UV-I 0 W/m 3,2 km/h (1 Bft)
28.03.2007 21:00 12,2 C 51 % 1013,7 hPa 0,0 mm 0,0 km/h (0 Bft) O 90 0 min 0 UV-I 0 W/m 4,8 km/h (1 Bft)
28.03.2007 21:10 11,9 C 53 % 1013,7 hPa 0,0 mm 0,0 km/h (0 Bft) O 90 0 min 0 UV-I 0 W/m 3,2 km/h (1 Bft)
28.03.2007 21:20 11,5 C 53 % 1013,7 hPa 0,0 mm 0,0 km/h (0 Bft) O 90 0 min 0 UV-I 0 W/m 1,6 km/h (1 Bft)
28.03.2007 21:30 11,2 C 54 % 1013,7 hPa 0,0 mm 0,0 km/h (0 Bft) N 0 0 min 0 UV-I 0 W/m 0,0 km/h (0 Bft)
28.03.2007 21:40 10,6 C 58 % 1013,8 hPa 0,0 mm 0,0 km/h (0 Bft) N 0 0 min 0 UV-I 0 W/m 0,0 km/h (0 Bft)
28.03.2007 21:50 10,1 C 58 % 1013,7 hPa 0,0 mm 0,0 km/h (0 Bft) N 0 0 min 0 UV-I 0 W/m 0,0 km/h (0 Bft)
28.03.2007 22:00 10,1 C 58 % 1013,6 hPa 0,0 mm 0,0 km/h (0 Bft) O 90 0 min 0 UV-I 0 W/m 3,2 km/h (1 Bft)
28.03.2007 22:10 10,0 C 58 % 1013,4 hPa 0,0 mm 0,0 km/h (0 Bft) O 90 0 min 0 UV-I 0 W/m 1,6 km/h (1 Bft)
28.03.2007 22:20 9,7 C 59 % 1013,4 hPa 0,0 mm 0,0 km/h (0 Bft) O 90 0 min 0 UV-I 0 W/m 1,6 km/h (1 Bft)
28.03.2007 22:30 9,4 C 61 % 1013,3 hPa 0,0 mm 0,0 km/h (0 Bft) N 0 0 min 0 UV-I 0 W/m 0,0 km/h (0 Bft)
28.03.2007 22:40 9,0 C 62 % 1013,3 hPa 0,0 mm 0,0 km/h (0 Bft) N 0 0 min 0 UV-I 0 W/m 0,0 km/h (0 Bft)
28.03.2007 22:50 8,9 C 62 % 1013,2 hPa 0,0 mm 0,0 km/h (0 Bft) O-SO 112 0 min 0 UV-I 0 W/m 3,2 km/h (1 Bft)
28.03.2007 23:00 9,0 C 61 % 1013,2 hPa 0,0 mm 1,6 km/h (1 Bft) O-SO 112 0 min 0 UV-I 0 W/m 3,2 km/h (1 Bft)
28.03.2007 23:10 9,1 C 60 % 1013,1 hPa 0,0 mm 0,0 km/h (0 Bft) O-SO 112 0 min 0 UV-I 0 W/m 3,2 km/h (1 Bft)
28.03.2007 23:20 8,9 C 61 % 1013,0 hPa 0,0 mm 0,0 km/h (0 Bft) O-SO 112 0 min 0 UV-I 0 W/m 3,2 km/h (1 Bft)
28.03.2007 23:30 8,7 C 61 % 1013,0 hPa 0,0 mm 0,0 km/h (0 Bft) O-SO 112 0 min 0 UV-I 0 W/m 1,6 km/h (1 Bft)
28.03.2007 23:40 8,6 C 62 % 1012,9 hPa 0,0 mm 0,0 km/h (0 Bft) O-SO 112 0 min 0 UV-I 0 W/m 1,6 km/h (1 Bft)
28.03.2007 23:50 8,4 C 64 % 1012,8 hPa 0,0 mm 0,0 km/h (0 Bft) N 0 0 min 0 UV-I 0 W/m 0,0 km/h (0 Bft)
_ Min-Zeit 07:40 16:30 23:50 - 05:20 - - - - - 07:40
Minimum _ 5,1 C 29 % 1012,8 hPa - 0,0 km/h (0 Bft) - - - - - 0,0 km/h (0 Bft)
_ Max-Zeit 16:20 07:40 00:10 00:00 11:50 - - 08:10 12:40 13:30 13:50
Maximum _ 18,1 C 68 % 1018,8 hPa 0,0 mm 4,8 km/h
O (1 Bft)
- - 10 min 3 UV-I 654 W/m 17,7 km/h
N (3 Bft)
Durchschnitt _ 11,7 C 48 % 1016,4 hPa #0,0 mm 1,9 km/h (1 Bft) O - #11:10 h 2 UV-I 386 W/m 6,4 km/h (2 Bft)